sensor_id;sensor_type;location;lat;lon;timestamp;pressure;altitude;pressure_sealevel;temperature;humidity
5126;BME280;63008;53.112;8.896;2023-05-14T00:00:40;101969.16;;;12.04;71.45
5126;BME280;63008;53.112;8.896;2023-05-14T00:02:41;101963.66;;;12.04;71.76
5126;BME280;63008;53.112;8.896;2023-05-14T00:04:42;101961.53;;;12.01;71.90
5126;BME280;63008;53.112;8.896;2023-05-14T00:06:43;101962.53;;;12.05;71.12
5126;BME280;63008;53.112;8.896;2023-05-14T00:08:43;101955.59;;;12.08;70.36
5126;BME280;63008;53.112;8.896;2023-05-14T00:10:44;101960.53;;;11.97;70.79
5126;BME280;63008;53.112;8.896;2023-05-14T00:12:46;101960.84;;;11.96;71.48
5126;BME280;63008;53.112;8.896;2023-05-14T00:14:47;101954.22;;;11.97;71.49
5126;BME280;63008;53.112;8.896;2023-05-14T00:16:48;101957.59;;;11.94;72.36
5126;BME280;63008;53.112;8.896;2023-05-14T00:18:49;101952.22;;;11.89;71.98
5126;BME280;63008;53.112;8.896;2023-05-14T00:20:50;101958.16;;;11.82;72.26
5126;BME280;63008;53.112;8.896;2023-05-14T00:22:54;101958.59;;;11.76;72.84
5126;BME280;63008;53.112;8.896;2023-05-14T00:24:55;101962.97;;;11.77;73.62
5126;BME280;63008;53.112;8.896;2023-05-14T00:26:56;101955.47;;;11.69;74.15
5126;BME280;63008;53.112;8.896;2023-05-14T00:28:57;101951.59;;;11.70;75.16
5126;BME280;63008;53.112;8.896;2023-05-14T00:30:58;101951.81;;;11.60;75.63
5126;BME280;63008;53.112;8.896;2023-05-14T00:32:59;101954.47;;;11.65;75.38
5126;BME280;63008;53.112;8.896;2023-05-14T00:35:00;101953.56;;;11.56;76.10
5126;BME280;63008;53.112;8.896;2023-05-14T00:37:02;101945.31;;;11.56;76.45
5126;BME280;63008;53.112;8.896;2023-05-14T00:39:03;101946.16;;;11.43;77.66
5126;BME280;63008;53.112;8.896;2023-05-14T00:41:04;101941.91;;;11.37;77.89
5126;BME280;63008;53.112;8.896;2023-05-14T00:43:05;101946.50;;;11.28;78.25
5126;BME280;63008;53.112;8.896;2023-05-14T00:45:07;101940.69;;;11.29;78.85
5126;BME280;63008;53.112;8.896;2023-05-14T00:47:08;101941.53;;;11.16;79.40
5126;BME280;63008;53.112;8.896;2023-05-14T00:49:09;101944.00;;;11.04;79.61
5126;BME280;63008;53.112;8.896;2023-05-14T00:51:10;101940.84;;;11.11;79.53
5126;BME280;63008;53.112;8.896;2023-05-14T00:53:12;101940.22;;;11.14;79.30
5126;BME280;63008;53.112;8.896;2023-05-14T00:55:14;101946.22;;;11.16;79.32
5126;BME280;63008;53.112;8.896;2023-05-14T00:57:17;101949.78;;;11.16;79.11
5126;BME280;63008;53.112;8.896;2023-05-14T00:59:18;101942.78;;;11.10;80.25
5126;BME280;63008;53.112;8.896;2023-05-14T01:01:19;101937.06;;;11.07;79.74
5126;BME280;63008;53.112;8.896;2023-05-14T01:03:20;101942.47;;;11.12;80.15
5126;BME280;63008;53.112;8.896;2023-05-14T01:05:23;101941.66;;;10.98;80.42
5126;BME280;63008;53.112;8.896;2023-05-14T01:07:38;101939.72;;;10.98;80.26
5126;BME280;63008;53.112;8.896;2023-05-14T01:09:50;101939.81;;;11.07;80.73
5126;BME280;63008;53.112;8.896;2023-05-14T01:12:07;101939.22;;;10.96;80.31
5126;BME280;63008;53.112;8.896;2023-05-14T01:14:23;101935.25;;;10.89;80.82
5126;BME280;63008;53.112;8.896;2023-05-14T01:16:28;101932.72;;;10.92;81.27
5126;BME280;63008;53.112;8.896;2023-05-14T01:18:31;101933.84;;;10.91;81.23
5126;BME280;63008;53.112;8.896;2023-05-14T01:20:32;101929.28;;;11.00;81.39
5126;BME280;63008;53.112;8.896;2023-05-14T01:22:33;101940.66;;;10.94;80.97
5126;BME280;63008;53.112;8.896;2023-05-14T01:24:34;101931.72;;;10.88;80.83
5126;BME280;63008;53.112;8.896;2023-05-14T01:26:35;101933.75;;;10.83;81.48
5126;BME280;63008;53.112;8.896;2023-05-14T01:28:36;101926.22;;;10.88;81.39
5126;BME280;63008;53.112;8.896;2023-05-14T01:30:46;101926.00;;;10.85;82.12
5126;BME280;63008;53.112;8.896;2023-05-14T01:32:50;101923.88;;;10.82;82.72
5126;BME280;63008;53.112;8.896;2023-05-14T01:34:54;101935.38;;;10.84;82.37
5126;BME280;63008;53.112;8.896;2023-05-14T01:36:58;101924.69;;;10.82;82.52
5126;BME280;63008;53.112;8.896;2023-05-14T01:39:00;101925.63;;;10.78;81.71
5126;BME280;63008;53.112;8.896;2023-05-14T01:41:02;101927.13;;;10.84;81.72
5126;BME280;63008;53.112;8.896;2023-05-14T01:43:04;101917.78;;;10.85;81.95
5126;BME280;63008;53.112;8.896;2023-05-14T01:45:05;101917.28;;;10.83;81.92
5126;BME280;63008;53.112;8.896;2023-05-14T01:47:07;101917.69;;;10.77;82.13
5126;BME280;63008;53.112;8.896;2023-05-14T01:49:08;101915.25;;;10.75;82.19
5126;BME280;63008;53.112;8.896;2023-05-14T01:51:09;101910.94;;;10.82;82.40
5126;BME280;63008;53.112;8.896;2023-05-14T01:53:10;101909.53;;;10.85;81.77
5126;BME280;63008;53.112;8.896;2023-05-14T01:55:11;101908.41;;;10.86;82.43
5126;BME280;63008;53.112;8.896;2023-05-14T01:57:12;101905.56;;;10.91;82.15
5126;BME280;63008;53.112;8.896;2023-05-14T01:59:12;101894.81;;;10.81;82.88
5126;BME280;63008;53.112;8.896;2023-05-14T02:01:13;101896.44;;;10.82;83.25
5126;BME280;63008;53.112;8.896;2023-05-14T02:03:14;101890.09;;;10.82;83.02
5126;BME280;63008;53.112;8.896;2023-05-14T02:05:15;101895.59;;;10.82;82.72
5126;BME280;63008;53.112;8.896;2023-05-14T02:07:16;101900.91;;;10.78;82.98
5126;BME280;63008;53.112;8.896;2023-05-14T02:09:17;101893.69;;;10.82;82.77
5126;BME280;63008;53.112;8.896;2023-05-14T02:11:18;101893.28;;;10.75;82.60
5126;BME280;63008;53.112;8.896;2023-05-14T02:13:19;101891.25;;;10.67;83.35
5126;BME280;63008;53.112;8.896;2023-05-14T02:15:20;101894.63;;;10.64;83.53
5126;BME280;63008;53.112;8.896;2023-05-14T02:17:22;101890.34;;;10.72;83.17
5126;BME280;63008;53.112;8.896;2023-05-14T02:19:23;101896.44;;;10.69;83.35
5126;BME280;63008;53.112;8.896;2023-05-14T02:21:24;101887.78;;;10.62;83.41
5126;BME280;63008;53.112;8.896;2023-05-14T02:23:25;101883.31;;;10.52;83.35
5126;BME280;63008;53.112;8.896;2023-05-14T02:25:26;101882.31;;;10.48;83.56
5126;BME280;63008;53.112;8.896;2023-05-14T02:27:27;101870.22;;;10.36;84.22
5126;BME280;63008;53.112;8.896;2023-05-14T02:29:28;101875.94;;;10.39;84.88
5126;BME280;63008;53.112;8.896;2023-05-14T02:31:29;101876.09;;;10.43;84.91
5126;BME280;63008;53.112;8.896;2023-05-14T02:33:30;101872.47;;;10.34;85.17
5126;BME280;63008;53.112;8.896;2023-05-14T02:35:31;101873.38;;;10.29;84.95
5126;BME280;63008;53.112;8.896;2023-05-14T02:37:32;101884.66;;;10.41;84.58
5126;BME280;63008;53.112;8.896;2023-05-14T02:39:34;101877.72;;;10.44;84.23
5126;BME280;63008;53.112;8.896;2023-05-14T02:41:35;101873.69;;;10.41;85.11
5126;BME280;63008;53.112;8.896;2023-05-14T02:43:36;101873.66;;;10.28;85.27
5126;BME280;63008;53.112;8.896;2023-05-14T02:45:37;101879.06;;;10.33;85.36
5126;BME280;63008;53.112;8.896;2023-05-14T02:47:38;101876.22;;;10.24;85.97
5126;BME280;63008;53.112;8.896;2023-05-14T02:49:39;101881.59;;;10.29;86.99
5126;BME280;63008;53.112;8.896;2023-05-14T02:51:40;101889.31;;;10.27;85.90
5126;BME280;63008;53.112;8.896;2023-05-14T02:53:41;101868.78;;;10.25;85.97
5126;BME280;63008;53.112;8.896;2023-05-14T02:55:42;101871.41;;;10.16;86.15
5126;BME280;63008;53.112;8.896;2023-05-14T02:57:43;101868.91;;;10.20;85.91
5126;BME280;63008;53.112;8.896;2023-05-14T02:59:44;101879.25;;;10.23;85.38
5126;BME280;63008;53.112;8.896;2023-05-14T03:01:45;101878.47;;;10.22;84.91
5126;BME280;63008;53.112;8.896;2023-05-14T03:03:46;101869.28;;;10.27;84.68
5126;BME280;63008;53.112;8.896;2023-05-14T03:05:46;101867.16;;;10.24;83.65
5126;BME280;63008;53.112;8.896;2023-05-14T03:07:49;101868.28;;;10.23;84.35
5126;BME280;63008;53.112;8.896;2023-05-14T03:09:50;101870.13;;;10.27;83.60
5126;BME280;63008;53.112;8.896;2023-05-14T03:11:51;101867.38;;;10.27;83.09
5126;BME280;63008;53.112;8.896;2023-05-14T03:13:52;101868.69;;;10.30;82.83
5126;BME280;63008;53.112;8.896;2023-05-14T03:15:53;101868.50;;;10.26;81.89
5126;BME280;63008;53.112;8.896;2023-05-14T03:17:54;101865.13;;;10.29;81.27
5126;BME280;63008;53.112;8.896;2023-05-14T03:19:55;101868.28;;;10.36;81.28
5126;BME280;63008;53.112;8.896;2023-05-14T03:21:56;101871.53;;;10.38;80.98
5126;BME280;63008;53.112;8.896;2023-05-14T03:23:57;101872.97;;;10.36;80.24
5126;BME280;63008;53.112;8.896;2023-05-14T03:25:58;101873.88;;;10.31;80.35
5126;BME280;63008;53.112;8.896;2023-05-14T03:27:59;101877.00;;;10.38;80.35
5126;BME280;63008;53.112;8.896;2023-05-14T03:30:00;101875.94;;;10.39;79.45
5126;BME280;63008;53.112;8.896;2023-05-14T03:32:01;101872.06;;;10.40;79.71
5126;BME280;63008;53.112;8.896;2023-05-14T03:34:02;101881.31;;;10.44;79.54
5126;BME280;63008;53.112;8.896;2023-05-14T03:36:03;101881.91;;;10.41;79.29
5126;BME280;63008;53.112;8.896;2023-05-14T03:38:05;101880.28;;;10.40;79.44
5126;BME280;63008;53.112;8.896;2023-05-14T03:40:08;101875.72;;;10.36;78.74
5126;BME280;63008;53.112;8.896;2023-05-14T03:42:09;101874.81;;;10.40;79.32
5126;BME280;63008;53.112;8.896;2023-05-14T03:44:11;101874.28;;;10.52;78.73
5126;BME280;63008;53.112;8.896;2023-05-14T03:46:12;101865.22;;;10.51;78.80
5126;BME280;63008;53.112;8.896;2023-05-14T03:48:13;101875.09;;;10.52;78.02
5126;BME280;63008;53.112;8.896;2023-05-14T03:50:14;101876.63;;;10.58;78.25
5126;BME280;63008;53.112;8.896;2023-05-14T03:52:15;101878.94;;;10.65;78.52
5126;BME280;63008;53.112;8.896;2023-05-14T03:54:16;101874.28;;;10.65;78.07
5126;BME280;63008;53.112;8.896;2023-05-14T03:56:17;101878.03;;;10.69;78.45
5126;BME280;63008;53.112;8.896;2023-05-14T03:58:18;101876.00;;;10.75;78.27
5126;BME280;63008;53.112;8.896;2023-05-14T04:00:19;101882.81;;;10.77;77.75
5126;BME280;63008;53.112;8.896;2023-05-14T04:02:20;101877.72;;;10.84;77.82
5126;BME280;63008;53.112;8.896;2023-05-14T04:04:20;101876.09;;;10.83;77.22
5126;BME280;63008;53.112;8.896;2023-05-14T04:06:21;101875.66;;;10.89;77.12
5126;BME280;63008;53.112;8.896;2023-05-14T04:08:22;101880.13;;;10.99;76.78
5126;BME280;63008;53.112;8.896;2023-05-14T04:10:23;101870.97;;;11.03;77.46
5126;BME280;63008;53.112;8.896;2023-05-14T04:12:24;101877.66;;;11.11;76.89
5126;BME280;63008;53.112;8.896;2023-05-14T04:14:26;101872.97;;;11.11;76.37
5126;BME280;63008;53.112;8.896;2023-05-14T04:16:27;101878.47;;;11.11;76.82
5126;BME280;63008;53.112;8.896;2023-05-14T04:18:28;101878.03;;;11.18;76.47
5126;BME280;63008;53.112;8.896;2023-05-14T04:20:29;101879.72;;;11.27;76.60
5126;BME280;63008;53.112;8.896;2023-05-14T04:22:30;101877.97;;;11.31;76.61
5126;BME280;63008;53.112;8.896;2023-05-14T04:24:31;101875.81;;;11.42;76.65
5126;BME280;63008;53.112;8.896;2023-05-14T04:26:32;101877.91;;;11.23;75.05
5126;BME280;63008;53.112;8.896;2023-05-14T04:28:33;101873.72;;;11.25;76.47
5126;BME280;63008;53.112;8.896;2023-05-14T04:30:34;101869.81;;;11.40;75.46
5126;BME280;63008;53.112;8.896;2023-05-14T04:32:35;101875.63;;;11.38;75.78
5126;BME280;63008;53.112;8.896;2023-05-14T04:34:36;101875.28;;;11.53;76.68
5126;BME280;63008;53.112;8.896;2023-05-14T04:36:37;101867.63;;;11.50;75.04
5126;BME280;63008;53.112;8.896;2023-05-14T04:38:38;101868.13;;;11.52;76.26
5126;BME280;63008;53.112;8.896;2023-05-14T04:40:39;101871.44;;;11.41;75.05
5126;BME280;63008;53.112;8.896;2023-05-14T04:42:43;101881.13;;;11.38;76.64
5126;BME280;63008;53.112;8.896;2023-05-14T04:44:44;101877.19;;;11.53;76.29
5126;BME280;63008;53.112;8.896;2023-05-14T04:46:45;101877.84;;;11.72;76.35
5126;BME280;63008;53.112;8.896;2023-05-14T04:48:46;101880.50;;;11.85;75.01
5126;BME280;63008;53.112;8.896;2023-05-14T04:50:47;101877.59;;;11.82;75.83
5126;BME280;63008;53.112;8.896;2023-05-14T04:52:48;101881.53;;;11.89;75.40
5126;BME280;63008;53.112;8.896;2023-05-14T04:54:49;101882.75;;;12.14;75.86
5126;BME280;63008;53.112;8.896;2023-05-14T04:56:50;101884.50;;;12.01;75.38
5126;BME280;63008;53.112;8.896;2023-05-14T04:58:51;101883.66;;;12.31;76.16
5126;BME280;63008;53.112;8.896;2023-05-14T05:00:52;101892.13;;;12.35;74.37
5126;BME280;63008;53.112;8.896;2023-05-14T05:02:53;101889.53;;;12.38;73.60
5126;BME280;63008;53.112;8.896;2023-05-14T05:04:54;101887.06;;;12.28;73.04
5126;BME280;63008;53.112;8.896;2023-05-14T05:06:55;101889.06;;;12.45;74.74
5126;BME280;63008;53.112;8.896;2023-05-14T05:08:56;101895.56;;;12.49;74.41
5126;BME280;63008;53.112;8.896;2023-05-14T05:10:57;101902.59;;;12.63;73.97
5126;BME280;63008;53.112;8.896;2023-05-14T05:12:59;101898.53;;;12.61;73.97
5126;BME280;63008;53.112;8.896;2023-05-14T05:14:59;101893.88;;;12.70;73.91
5126;BME280;63008;53.112;8.896;2023-05-14T05:17:00;101896.13;;;12.76;73.84
5126;BME280;63008;53.112;8.896;2023-05-14T05:19:02;101901.16;;;12.74;73.33
5126;BME280;63008;53.112;8.896;2023-05-14T05:21:03;101906.06;;;12.85;73.49
5126;BME280;63008;53.112;8.896;2023-05-14T05:23:03;101899.13;;;12.96;73.30
5126;BME280;63008;53.112;8.896;2023-05-14T05:25:05;101898.97;;;13.01;73.90
5126;BME280;63008;53.112;8.896;2023-05-14T05:27:06;101901.25;;;13.16;72.98
5126;BME280;63008;53.112;8.896;2023-05-14T05:29:07;101899.34;;;13.25;73.48
5126;BME280;63008;53.112;8.896;2023-05-14T05:31:08;101901.28;;;13.42;73.09
5126;BME280;63008;53.112;8.896;2023-05-14T05:33:08;101893.66;;;13.56;72.91
5126;BME280;63008;53.112;8.896;2023-05-14T05:35:09;101908.09;;;13.61;73.22
5126;BME280;63008;53.112;8.896;2023-05-14T05:37:10;101900.47;;;13.67;71.15
5126;BME280;63008;53.112;8.896;2023-05-14T05:39:12;101894.94;;;13.84;70.53
5126;BME280;63008;53.112;8.896;2023-05-14T05:41:13;101896.53;;;14.02;70.81
5126;BME280;63008;53.112;8.896;2023-05-14T05:43:14;101893.88;;;14.14;70.17
5126;BME280;63008;53.112;8.896;2023-05-14T05:45:15;101895.22;;;14.16;70.81
5126;BME280;63008;53.112;8.896;2023-05-14T05:47:16;101897.56;;;14.35;70.38
5126;BME280;63008;53.112;8.896;2023-05-14T05:49:17;101898.97;;;14.49;69.03
5126;BME280;63008;53.112;8.896;2023-05-14T05:51:18;101899.75;;;14.58;71.54
5126;BME280;63008;53.112;8.896;2023-05-14T05:53:19;101892.91;;;14.64;68.58
5126;BME280;63008;53.112;8.896;2023-05-14T05:55:20;101891.88;;;14.68;69.26
5126;BME280;63008;53.112;8.896;2023-05-14T05:57:21;101897.25;;;14.94;69.54
5126;BME280;63008;53.112;8.896;2023-05-14T05:59:23;101900.50;;;14.96;70.33
5126;BME280;63008;53.112;8.896;2023-05-14T06:01:24;101896.63;;;14.97;69.20
5126;BME280;63008;53.112;8.896;2023-05-14T06:03:26;101897.56;;;15.01;69.76
5126;BME280;63008;53.112;8.896;2023-05-14T06:05:27;101901.38;;;15.17;70.86
5126;BME280;63008;53.112;8.896;2023-05-14T06:07:28;101909.59;;;15.25;69.23
5126;BME280;63008;53.112;8.896;2023-05-14T06:09:29;101902.41;;;15.33;69.27
5126;BME280;63008;53.112;8.896;2023-05-14T06:11:30;101903.22;;;15.54;67.84
5126;BME280;63008;53.112;8.896;2023-05-14T06:13:31;101899.31;;;15.67;67.29
5126;BME280;63008;53.112;8.896;2023-05-14T06:15:31;101896.47;;;15.75;68.31
5126;BME280;63008;53.112;8.896;2023-05-14T06:17:32;101895.84;;;15.90;66.91
5126;BME280;63008;53.112;8.896;2023-05-14T06:19:33;101899.41;;;16.11;64.99
5126;BME280;63008;53.112;8.896;2023-05-14T06:21:34;101889.25;;;16.27;65.20
5126;BME280;63008;53.112;8.896;2023-05-14T06:23:35;101898.53;;;16.43;65.12
5126;BME280;63008;53.112;8.896;2023-05-14T06:25:36;101899.00;;;16.45;67.13
5126;BME280;63008;53.112;8.896;2023-05-14T06:27:37;101892.09;;;16.51;67.48
5126;BME280;63008;53.112;8.896;2023-05-14T06:29:38;101895.66;;;16.63;66.93
5126;BME280;63008;53.112;8.896;2023-05-14T06:31:40;101893.81;;;16.67;67.22
5126;BME280;63008;53.112;8.896;2023-05-14T06:33:40;101898.56;;;16.79;66.49
5126;BME280;63008;53.112;8.896;2023-05-14T06:35:41;101901.91;;;16.96;65.89
5126;BME280;63008;53.112;8.896;2023-05-14T06:37:42;101897.84;;;17.06;64.97
5126;BME280;63008;53.112;8.896;2023-05-14T06:39:43;101897.59;;;17.11;63.74
5126;BME280;63008;53.112;8.896;2023-05-14T06:41:49;101897.47;;;17.07;62.46
5126;BME280;63008;53.112;8.896;2023-05-14T06:43:50;101896.22;;;17.17;62.64
5126;BME280;63008;53.112;8.896;2023-05-14T06:45:51;101898.88;;;17.13;63.36
5126;BME280;63008;53.112;8.896;2023-05-14T06:47:52;101901.25;;;17.27;62.75
5126;BME280;63008;53.112;8.896;2023-05-14T06:49:53;101907.41;;;17.44;61.43
5126;BME280;63008;53.112;8.896;2023-05-14T06:51:55;101898.34;;;17.47;63.22
5126;BME280;63008;53.112;8.896;2023-05-14T06:53:56;101897.75;;;17.54;61.67
5126;BME280;63008;53.112;8.896;2023-05-14T06:55:57;101898.56;;;17.54;60.56
5126;BME280;63008;53.112;8.896;2023-05-14T06:57:58;101906.47;;;17.68;61.40
5126;BME280;63008;53.112;8.896;2023-05-14T06:59:59;101903.78;;;17.83;59.61
5126;BME280;63008;53.112;8.896;2023-05-14T07:02:00;101907.34;;;17.84;60.35
5126;BME280;63008;53.112;8.896;2023-05-14T07:04:01;101898.41;;;17.90;61.17
5126;BME280;63008;53.112;8.896;2023-05-14T07:06:02;101899.38;;;17.82;59.54
5126;BME280;63008;53.112;8.896;2023-05-14T07:08:03;101895.34;;;17.95;59.19
5126;BME280;63008;53.112;8.896;2023-05-14T07:10:05;101901.84;;;17.99;59.45
5126;BME280;63008;53.112;8.896;2023-05-14T07:12:06;101899.31;;;17.94;59.97
5126;BME280;63008;53.112;8.896;2023-05-14T07:14:07;101910.69;;;18.05;60.37
5126;BME280;63008;53.112;8.896;2023-05-14T07:16:08;101901.31;;;18.09;57.66
5126;BME280;63008;53.112;8.896;2023-05-14T07:18:10;101898.03;;;18.19;56.26
5126;BME280;63008;53.112;8.896;2023-05-14T07:20:11;101899.84;;;18.27;56.46
5126;BME280;63008;53.112;8.896;2023-05-14T07:22:12;101897.88;;;18.43;56.95
5126;BME280;63008;53.112;8.896;2023-05-14T07:24:13;101892.06;;;18.33;55.03
5126;BME280;63008;53.112;8.896;2023-05-14T07:26:17;101891.53;;;18.43;55.54
5126;BME280;63008;53.112;8.896;2023-05-14T07:28:18;101895.38;;;18.53;55.34
5126;BME280;63008;53.112;8.896;2023-05-14T07:30:19;101889.91;;;18.57;55.10
5126;BME280;63008;53.112;8.896;2023-05-14T07:32:20;101896.00;;;18.62;56.24
5126;BME280;63008;53.112;8.896;2023-05-14T07:34:21;101895.63;;;18.64;54.15
5126;BME280;63008;53.112;8.896;2023-05-14T07:36:22;101893.19;;;18.78;54.28
5126;BME280;63008;53.112;8.896;2023-05-14T07:38:23;101887.34;;;18.83;53.19
5126;BME280;63008;53.112;8.896;2023-05-14T07:40:24;101885.53;;;18.90;53.37
5126;BME280;63008;53.112;8.896;2023-05-14T07:42:25;101886.16;;;18.99;53.47
5126;BME280;63008;53.112;8.896;2023-05-14T07:44:26;101886.97;;;19.00;53.02
5126;BME280;63008;53.112;8.896;2023-05-14T07:46:27;101889.53;;;19.08;52.87
5126;BME280;63008;53.112;8.896;2023-05-14T07:48:28;101883.00;;;19.16;53.07
5126;BME280;63008;53.112;8.896;2023-05-14T07:50:29;101884.25;;;19.19;52.21
5126;BME280;63008;53.112;8.896;2023-05-14T07:52:31;101885.53;;;19.06;53.17
5126;BME280;63008;53.112;8.896;2023-05-14T07:54:31;101882.88;;;19.13;52.73
5126;BME280;63008;53.112;8.896;2023-05-14T07:56:32;101882.63;;;19.18;52.56
5126;BME280;63008;53.112;8.896;2023-05-14T07:58:33;101879.66;;;19.11;52.92
5126;BME280;63008;53.112;8.896;2023-05-14T08:00:35;101876.16;;;19.29;52.77
5126;BME280;63008;53.112;8.896;2023-05-14T08:02:36;101874.06;;;19.26;53.81
5126;BME280;63008;53.112;8.896;2023-05-14T08:04:38;101875.63;;;19.08;53.17
5126;BME280;63008;53.112;8.896;2023-05-14T08:06:38;101870.19;;;19.31;53.30
5126;BME280;63008;53.112;8.896;2023-05-14T08:08:39;101872.69;;;19.36;52.41
5126;BME280;63008;53.112;8.896;2023-05-14T08:10:40;101870.06;;;19.62;52.47
5126;BME280;63008;53.112;8.896;2023-05-14T08:12:41;101878.25;;;19.93;52.05
5126;BME280;63008;53.112;8.896;2023-05-14T08:14:42;101869.06;;;20.11;50.88
5126;BME280;63008;53.112;8.896;2023-05-14T08:16:43;101872.31;;;19.75;53.27
5126;BME280;63008;53.112;8.896;2023-05-14T08:18:44;101871.88;;;19.92;53.08
5126;BME280;63008;53.112;8.896;2023-05-14T08:20:45;101872.44;;;20.01;51.76
5126;BME280;63008;53.112;8.896;2023-05-14T08:22:46;101864.09;;;20.01;49.23
5126;BME280;63008;53.112;8.896;2023-05-14T08:24:47;101862.03;;;20.17;49.42
5126;BME280;63008;53.112;8.896;2023-05-14T08:26:48;101860.28;;;20.09;49.66
5126;BME280;63008;53.112;8.896;2023-05-14T08:28:49;101871.94;;;20.15;50.31
5126;BME280;63008;53.112;8.896;2023-05-14T08:30:50;101867.97;;;20.16;48.77
5126;BME280;63008;53.112;8.896;2023-05-14T08:32:51;101860.88;;;19.99;50.73
5126;BME280;63008;53.112;8.896;2023-05-14T08:34:52;101867.09;;;20.12;50.16
5126;BME280;63008;53.112;8.896;2023-05-14T08:36:53;101861.03;;;20.29;48.23
5126;BME280;63008;53.112;8.896;2023-05-14T08:38:54;101854.94;;;20.45;46.81
5126;BME280;63008;53.112;8.896;2023-05-14T08:40:56;101856.34;;;20.58;50.51
5126;BME280;63008;53.112;8.896;2023-05-14T08:43:00;101851.13;;;21.05;47.49
5126;BME280;63008;53.112;8.896;2023-05-14T08:45:04;101849.59;;;21.11;48.02
5126;BME280;63008;53.112;8.896;2023-05-14T08:47:05;101854.03;;;20.86;45.85
5126;BME280;63008;53.112;8.896;2023-05-14T08:51:31;101845.47;;;21.28;48.49
5126;BME280;63008;53.112;8.896;2023-05-14T08:53:32;101839.63;;;21.10;48.86
5126;BME280;63008;53.112;8.896;2023-05-14T08:55:34;101843.56;;;21.35;47.46
5126;BME280;63008;53.112;8.896;2023-05-14T08:57:38;101837.06;;;20.98;43.12
5126;BME280;63008;53.112;8.896;2023-05-14T08:59:39;101838.34;;;21.04;43.32
5126;BME280;63008;53.112;8.896;2023-05-14T09:01:48;101839.94;;;21.35;45.64
5126;BME280;63008;53.112;8.896;2023-05-14T09:03:52;101835.00;;;21.54;45.36
5126;BME280;63008;53.112;8.896;2023-05-14T09:05:54;101837.28;;;21.45;43.84
5126;BME280;63008;53.112;8.896;2023-05-14T09:07:56;101833.75;;;21.81;42.18
5126;BME280;63008;53.112;8.896;2023-05-14T09:09:57;101835.50;;;21.96;45.10
5126;BME280;63008;53.112;8.896;2023-05-14T09:12:00;101834.34;;;22.01;41.72
5126;BME280;63008;53.112;8.896;2023-05-14T09:14:00;101829.16;;;22.39;41.51
5126;BME280;63008;53.112;8.896;2023-05-14T09:16:02;101826.00;;;22.04;43.57
5126;BME280;63008;53.112;8.896;2023-05-14T09:18:06;101829.03;;;22.29;41.71
5126;BME280;63008;53.112;8.896;2023-05-14T09:20:08;101825.00;;;22.26;41.91
5126;BME280;63008;53.112;8.896;2023-05-14T09:22:11;101828.25;;;21.88;46.22
5126;BME280;63008;53.112;8.896;2023-05-14T09:24:19;101821.31;;;22.15;41.97
5126;BME280;63008;53.112;8.896;2023-05-14T09:26:23;101833.28;;;22.55;44.15
5126;BME280;63008;53.112;8.896;2023-05-14T09:28:25;101824.16;;;22.65;41.12
5126;BME280;63008;53.112;8.896;2023-05-14T09:30:27;101824.16;;;22.65;39.96
5126;BME280;63008;53.112;8.896;2023-05-14T09:32:34;101817.44;;;22.30;40.43
5126;BME280;63008;53.112;8.896;2023-05-14T09:34:35;101818.06;;;22.53;42.18
5126;BME280;63008;53.112;8.896;2023-05-14T09:36:39;101811.53;;;22.38;42.37
5126;BME280;63008;53.112;8.896;2023-05-14T09:38:40;101818.56;;;21.79;42.70
5126;BME280;63008;53.112;8.896;2023-05-14T09:40:41;101816.53;;;21.79;40.67
5126;BME280;63008;53.112;8.896;2023-05-14T09:42:42;101815.06;;;22.32;43.93
5126;BME280;63008;53.112;8.896;2023-05-14T09:44:44;101818.03;;;23.07;40.02
5126;BME280;63008;53.112;8.896;2023-05-14T09:46:46;101818.91;;;23.18;40.75
5126;BME280;63008;53.112;8.896;2023-05-14T09:48:46;101809.03;;;23.59;40.87
5126;BME280;63008;53.112;8.896;2023-05-14T09:50:47;101812.34;;;23.85;43.43
5126;BME280;63008;53.112;8.896;2023-05-14T09:52:48;101815.19;;;24.10;38.38
5126;BME280;63008;53.112;8.896;2023-05-14T09:54:51;101807.09;;;22.88;38.83
5126;BME280;63008;53.112;8.896;2023-05-14T09:56:52;101803.06;;;22.82;38.91
5126;BME280;63008;53.112;8.896;2023-05-14T09:58:53;101808.38;;;23.01;38.68
5126;BME280;63008;53.112;8.896;2023-05-14T10:00:56;101799.03;;;21.86;39.69
5126;BME280;63008;53.112;8.896;2023-05-14T10:02:57;101800.44;;;22.06;42.01
5126;BME280;63008;53.112;8.896;2023-05-14T10:05:01;101803.06;;;22.32;40.02
5126;BME280;63008;53.112;8.896;2023-05-14T10:07:03;101803.00;;;22.21;39.95
5126;BME280;63008;53.112;8.896;2023-05-14T10:09:09;101800.72;;;22.37;39.17
5126;BME280;63008;53.112;8.896;2023-05-14T10:11:18;101790.91;;;22.57;39.71
5126;BME280;63008;53.112;8.896;2023-05-14T10:13:25;101799.56;;;22.99;39.33
5126;BME280;63008;53.112;8.896;2023-05-14T10:15:39;101793.84;;;23.60;36.80
5126;BME280;63008;53.112;8.896;2023-05-14T10:17:47;101796.25;;;23.61;37.93
5126;BME280;63008;53.112;8.896;2023-05-14T10:19:53;101794.59;;;23.43;41.50
5126;BME280;63008;53.112;8.896;2023-05-14T10:22:06;101789.94;;;24.69;37.96
5126;BME280;63008;53.112;8.896;2023-05-14T10:24:08;101795.13;;;23.87;40.41
5126;BME280;63008;53.112;8.896;2023-05-14T10:26:09;101797.13;;;23.90;39.28
5126;BME280;63008;53.112;8.896;2023-05-14T10:28:10;101785.53;;;24.26;34.41
5126;BME280;63008;53.112;8.896;2023-05-14T10:30:11;101793.13;;;23.91;36.08
5126;BME280;63008;53.112;8.896;2023-05-14T10:32:13;101794.34;;;23.93;35.76
5126;BME280;63008;53.112;8.896;2023-05-14T10:34:37;101789.00;;;23.57;36.31
5126;BME280;63008;53.112;8.896;2023-05-14T10:36:40;101784.50;;;23.24;36.24
5126;BME280;63008;53.112;8.896;2023-05-14T10:38:41;101780.69;;;22.85;41.06
5126;BME280;63008;53.112;8.896;2023-05-14T10:40:42;101782.88;;;22.55;38.39
5126;BME280;63008;53.112;8.896;2023-05-14T10:42:46;101776.84;;;22.46;40.03
5126;BME280;63008;53.112;8.896;2023-05-14T10:44:49;101767.81;;;22.20;42.05
5126;BME280;63008;53.112;8.896;2023-05-14T10:46:51;101773.81;;;21.79;42.56